リーブルヴィル の空港の天気 - METARとTAF

リーブルヴィル国際空港 ( FOOL / LBV ) - ガボン リーブルヴィル
飛行場実況気象(Metar)
観測時間02/18 00:00 WAT (02/17 23:00 UTC)
風向・風速南南西 3m/s
視程10km以上
天気現象
全天の4割程度の雲 雲底高度 400m
全天の4割程度の雲 雲底高度 610m
気温28℃
湿度84%
気圧1012hPa
METARFOOL 172300Z 20005KT 9999 SCT013 SCT020 28/25 Q1012 NOSIG
過去の天気等 Google飛行場航空写真 Wunderground天気予報

過去48時間のMETAR

飛行場予報(TAF)
発表時間: 2/17 18:00 WAT (2/17 17:00 UTC)
予報対象時間: 17日19時 WAT ~ 19日1時 WAT
風向・風速南西 4m/s
視程10km以上
全天の4割程度の雲 雲底高度 340m
少しの積乱雲 雲底高度 610m
全天の8割程度の雲 雲底高度 1010m
17日22時 WAT ~ 18日4時 WAT に 確率 30% で一時的に
天気現象
18日22時 WAT ~ 19日1時 WAT に 確率 30% で一時的に
天気現象
TAF FOOL 171700Z 1718/1824 22007KT 9999 SCT011 FEW020CB BKN033
PROB30 TEMPO 1721/1803 TS
PROB30 TEMPO 1821/1824 TS